sensor_id;sensor_type;location;lat;lon;timestamp;pressure;altitude;pressure_sealevel;temperature;humidity
56600;BME280;51832;48.152;11.530;2022-12-07T00:02:34;95401.97;;;5.63;76.00
56600;BME280;51832;48.152;11.530;2022-12-07T00:07:34;95402.66;;;5.71;75.29
56600;BME280;51832;48.152;11.530;2022-12-07T00:12:44;95396.75;;;5.63;75.86
56600;BME280;51832;48.152;11.530;2022-12-07T00:17:45;95391.22;;;5.72;75.50
56600;BME280;51832;48.152;11.530;2022-12-07T00:22:45;95376.72;;;5.70;75.65
56600;BME280;51832;48.152;11.530;2022-12-07T00:27:45;95377.78;;;5.48;75.96
56600;BME280;51832;48.152;11.530;2022-12-07T00:32:46;95377.09;;;5.67;75.44
56600;BME280;51832;48.152;11.530;2022-12-07T00:37:46;95381.59;;;5.45;75.70
56600;BME280;51832;48.152;11.530;2022-12-07T00:42:47;95378.34;;;5.78;75.27
56600;BME280;51832;48.152;11.530;2022-12-07T00:47:47;95378.28;;;5.64;75.05
56600;BME280;51832;48.152;11.530;2022-12-07T00:52:48;95380.16;;;5.70;74.33
56600;BME280;51832;48.152;11.530;2022-12-07T00:57:48;95392.03;;;5.80;74.45
56600;BME280;51832;48.152;11.530;2022-12-07T01:02:48;95384.19;;;5.80;74.04
56600;BME280;51832;48.152;11.530;2022-12-07T01:07:49;95379.91;;;5.65;74.09
56600;BME280;51832;48.152;11.530;2022-12-07T01:12:49;95382.38;;;5.80;73.95
56600;BME280;51832;48.152;11.530;2022-12-07T01:17:50;95375.78;;;5.84;73.46
56600;BME280;51832;48.152;11.530;2022-12-07T01:22:50;95380.22;;;5.84;73.93
56600;BME280;51832;48.152;11.530;2022-12-07T01:27:51;95380.06;;;5.57;73.87
56600;BME280;51832;48.152;11.530;2022-12-07T01:32:51;95381.34;;;5.68;73.58
56600;BME280;51832;48.152;11.530;2022-12-07T01:37:51;95375.22;;;5.54;73.89
56600;BME280;51832;48.152;11.530;2022-12-07T01:42:52;95383.50;;;5.58;74.15
56600;BME280;51832;48.152;11.530;2022-12-07T01:47:55;95382.28;;;5.26;75.54
56600;BME280;51832;48.152;11.530;2022-12-07T01:52:57;95373.91;;;5.37;75.41
56600;BME280;51832;48.152;11.530;2022-12-07T01:57:59;95373.19;;;5.22;75.93
56600;BME280;51832;48.152;11.530;2022-12-07T02:03:27;95369.19;;;5.19;76.04
56600;BME280;51832;48.152;11.530;2022-12-07T02:08:25;95378.56;;;5.42;75.69
56600;BME280;51832;48.152;11.530;2022-12-07T02:13:29;95369.03;;;5.27;76.02
56600;BME280;51832;48.152;11.530;2022-12-07T02:34:58;95350.13;;;5.53;74.93
56600;BME280;51832;48.152;11.530;2022-12-07T02:40:17;95352.84;;;5.39;75.70
56600;BME280;51832;48.152;11.530;2022-12-07T02:45:21;95355.72;;;5.50;75.81
56600;BME280;51832;48.152;11.530;2022-12-07T02:50:23;95340.25;;;5.49;75.45
56600;BME280;51832;48.152;11.530;2022-12-07T02:55:29;95341.38;;;5.67;74.96
56600;BME280;51832;48.152;11.530;2022-12-07T03:00:32;95354.09;;;5.43;75.78
56600;BME280;51832;48.152;11.530;2022-12-07T03:10:58;95347.00;;;5.71;75.06
56600;BME280;51832;48.152;11.530;2022-12-07T03:16:18;95345.41;;;5.70;74.86
56600;BME280;51832;48.152;11.530;2022-12-07T03:21:25;95343.34;;;5.65;74.41
56600;BME280;51832;48.152;11.530;2022-12-07T03:26:38;95345.34;;;5.63;74.69
56600;BME280;51832;48.152;11.530;2022-12-07T03:31:44;95343.34;;;5.59;74.65
56600;BME280;51832;48.152;11.530;2022-12-07T03:36:50;95340.38;;;5.75;74.40
56600;BME280;51832;48.152;11.530;2022-12-07T03:41:54;95345.09;;;5.52;74.79
56600;BME280;51832;48.152;11.530;2022-12-07T03:47:01;95352.28;;;5.43;74.65
56600;BME280;51832;48.152;11.530;2022-12-07T03:57:30;95332.03;;;5.52;75.08
56600;BME280;51832;48.152;11.530;2022-12-07T04:02:32;95343.47;;;5.44;75.15
56600;BME280;51832;48.152;11.530;2022-12-07T04:07:34;95330.66;;;5.56;75.32
56600;BME280;51832;48.152;11.530;2022-12-07T04:12:35;95328.06;;;5.56;75.12
56600;BME280;51832;48.152;11.530;2022-12-07T04:17:35;95329.69;;;5.63;75.03
56600;BME280;51832;48.152;11.530;2022-12-07T04:22:36;95328.63;;;5.45;75.40
56600;BME280;51832;48.152;11.530;2022-12-07T04:27:36;95341.31;;;5.54;75.55
56600;BME280;51832;48.152;11.530;2022-12-07T04:32:37;95337.13;;;5.25;76.47
56600;BME280;51832;48.152;11.530;2022-12-07T04:37:37;95340.25;;;5.14;76.94
56600;BME280;51832;48.152;11.530;2022-12-07T04:42:39;95335.00;;;5.08;78.15
56600;BME280;51832;48.152;11.530;2022-12-07T04:47:40;95337.59;;;4.80;79.01
56600;BME280;51832;48.152;11.530;2022-12-07T04:52:40;95333.63;;;4.84;83.56
56600;BME280;51832;48.152;11.530;2022-12-07T04:57:40;95343.47;;;5.85;81.87
56600;BME280;51832;48.152;11.530;2022-12-07T05:02:41;95332.81;;;6.61;78.22
56600;BME280;51832;48.152;11.530;2022-12-07T05:07:41;95328.59;;;6.86;73.39
56600;BME280;51832;48.152;11.530;2022-12-07T05:12:42;95330.41;;;6.99;71.26
56600;BME280;51832;48.152;11.530;2022-12-07T05:17:42;95334.81;;;6.46;72.20
56600;BME280;51832;48.152;11.530;2022-12-07T05:22:43;95341.84;;;5.43;75.93
56600;BME280;51832;48.152;11.530;2022-12-07T05:27:43;95346.56;;;5.26;77.04
56600;BME280;51832;48.152;11.530;2022-12-07T05:32:43;95337.22;;;4.83;78.44
56600;BME280;51832;48.152;11.530;2022-12-07T05:37:44;95340.53;;;4.70;79.34
56600;BME280;51832;48.152;11.530;2022-12-07T05:42:45;95347.34;;;4.71;79.00
56600;BME280;51832;48.152;11.530;2022-12-07T05:47:45;95343.84;;;4.85;78.58
56600;BME280;51832;48.152;11.530;2022-12-07T05:52:45;95340.88;;;4.67;79.21
56600;BME280;51832;48.152;11.530;2022-12-07T05:57:46;95339.50;;;4.64;79.01
56600;BME280;51832;48.152;11.530;2022-12-07T06:03:06;95333.19;;;4.80;78.73
56600;BME280;51832;48.152;11.530;2022-12-07T06:08:07;95340.09;;;4.67;79.07
56600;BME280;51832;48.152;11.530;2022-12-07T06:13:08;95348.09;;;4.65;78.90
56600;BME280;51832;48.152;11.530;2022-12-07T06:18:09;95350.13;;;4.70;78.78
56600;BME280;51832;48.152;11.530;2022-12-07T06:23:09;95354.81;;;4.74;79.32
56600;BME280;51832;48.152;11.530;2022-12-07T06:28:09;95352.00;;;4.54;80.03
56600;BME280;51832;48.152;11.530;2022-12-07T06:33:10;95350.97;;;4.49;80.21
56600;BME280;51832;48.152;11.530;2022-12-07T06:38:10;95360.88;;;4.81;78.80
56600;BME280;51832;48.152;11.530;2022-12-07T06:43:10;95359.09;;;4.60;79.31
56600;BME280;51832;48.152;11.530;2022-12-07T06:48:11;95359.44;;;4.79;78.85
56600;BME280;51832;48.152;11.530;2022-12-07T06:53:11;95360.06;;;4.81;78.36
56600;BME280;51832;48.152;11.530;2022-12-07T06:58:12;95368.97;;;4.93;78.17
56600;BME280;51832;48.152;11.530;2022-12-07T07:03:12;95375.75;;;4.87;77.36
56600;BME280;51832;48.152;11.530;2022-12-07T07:08:13;95363.66;;;4.80;78.06
56600;BME280;51832;48.152;11.530;2022-12-07T07:13:13;95370.47;;;4.81;77.61
56600;BME280;51832;48.152;11.530;2022-12-07T07:18:14;95375.22;;;4.71;77.75
56600;BME280;51832;48.152;11.530;2022-12-07T07:23:14;95370.88;;;4.78;77.61
56600;BME280;51832;48.152;11.530;2022-12-07T07:28:15;95372.53;;;4.43;79.29
56600;BME280;51832;48.152;11.530;2022-12-07T07:33:16;95370.81;;;4.71;78.14
56600;BME280;51832;48.152;11.530;2022-12-07T07:38:16;95376.31;;;4.83;77.74
56600;BME280;51832;48.152;11.530;2022-12-07T07:43:17;95387.19;;;4.44;78.14
56600;BME280;51832;48.152;11.530;2022-12-07T07:48:17;95378.81;;;4.70;77.80
56600;BME280;51832;48.152;11.530;2022-12-07T07:53:17;95385.38;;;4.44;78.24
56600;BME280;51832;48.152;11.530;2022-12-07T07:58:18;95384.97;;;4.62;77.71
56600;BME280;51832;48.152;11.530;2022-12-07T08:03:18;95387.38;;;4.42;78.22
56600;BME280;51832;48.152;11.530;2022-12-07T08:08:19;95385.59;;;4.64;78.08
56600;BME280;51832;48.152;11.530;2022-12-07T08:13:19;95380.78;;;4.68;77.40
56600;BME280;51832;48.152;11.530;2022-12-07T08:18:20;95394.56;;;4.83;77.03
56600;BME280;51832;48.152;11.530;2022-12-07T08:23:20;95387.69;;;4.75;77.43
56600;BME280;51832;48.152;11.530;2022-12-07T08:28:20;95400.50;;;4.98;76.93
56600;BME280;51832;48.152;11.530;2022-12-07T08:33:21;95401.06;;;4.93;76.55
56600;BME280;51832;48.152;11.530;2022-12-07T08:38:23;95396.22;;;5.12;76.20
56600;BME280;51832;48.152;11.530;2022-12-07T08:43:26;95399.16;;;5.02;75.93
56600;BME280;51832;48.152;11.530;2022-12-07T08:48:27;95395.00;;;4.86;76.66
56600;BME280;51832;48.152;11.530;2022-12-07T08:53:28;95389.91;;;4.99;76.04
56600;BME280;51832;48.152;11.530;2022-12-07T08:58:30;95394.34;;;4.78;77.00
56600;BME280;51832;48.152;11.530;2022-12-07T09:03:31;95394.47;;;5.19;75.01
56600;BME280;51832;48.152;11.530;2022-12-07T09:08:41;95390.56;;;5.36;74.27
56600;BME280;51832;48.152;11.530;2022-12-07T09:13:44;95400.81;;;5.38;73.04
56600;BME280;51832;48.152;11.530;2022-12-07T09:18:44;95387.38;;;5.41;72.25
56600;BME280;51832;48.152;11.530;2022-12-07T09:23:45;95380.16;;;5.77;70.96
56600;BME280;51832;48.152;11.530;2022-12-07T09:28:45;95386.72;;;5.60;71.56
56600;BME280;51832;48.152;11.530;2022-12-07T09:33:46;95391.47;;;5.84;70.05
56600;BME280;51832;48.152;11.530;2022-12-07T09:38:46;95390.28;;;5.87;70.33
56600;BME280;51832;48.152;11.530;2022-12-07T09:43:46;95393.03;;;5.79;69.86
56600;BME280;51832;48.152;11.530;2022-12-07T09:48:48;95387.63;;;5.80;70.00
56600;BME280;51832;48.152;11.530;2022-12-07T09:53:51;95383.97;;;6.16;69.05
56600;BME280;51832;48.152;11.530;2022-12-07T09:58:58;95384.34;;;5.99;69.19
56600;BME280;51832;48.152;11.530;2022-12-07T10:04:10;95378.16;;;6.14;69.31
56600;BME280;51832;48.152;11.530;2022-12-07T10:09:15;95360.44;;;5.68;70.27
56600;BME280;51832;48.152;11.530;2022-12-07T10:14:15;95369.72;;;6.12;69.12
56600;BME280;51832;48.152;11.530;2022-12-07T10:24:25;95368.34;;;5.88;70.09
56600;BME280;51832;48.152;11.530;2022-12-07T10:29:31;95360.72;;;6.34;69.07
56600;BME280;51832;48.152;11.530;2022-12-07T10:34:34;95369.72;;;6.12;68.94
56600;BME280;51832;48.152;11.530;2022-12-07T10:39:53;95359.50;;;6.30;68.12
56600;BME280;51832;48.152;11.530;2022-12-07T10:45:15;95361.34;;;6.36;67.16
56600;BME280;51832;48.152;11.530;2022-12-07T11:02:08;95332.84;;;6.87;64.38
56600;BME280;51832;48.152;11.530;2022-12-07T11:07:00;95317.53;;;6.97;63.22
56600;BME280;51832;48.152;11.530;2022-12-07T11:33:04;95300.47;;;7.66;57.90
56600;BME280;51832;48.152;11.530;2022-12-07T11:38:22;95295.91;;;8.44;57.28
56600;BME280;51832;48.152;11.530;2022-12-07T11:43:27;95315.13;;;8.25;57.04
56600;BME280;51832;48.152;11.530;2022-12-07T11:48:37;95292.94;;;8.34;55.48
56600;BME280;51832;48.152;11.530;2022-12-07T12:03:52;95275.09;;;7.73;53.50
56600;BME280;51832;48.152;11.530;2022-12-07T12:08:55;95271.50;;;7.61;52.97
56600;BME280;51832;48.152;11.530;2022-12-07T12:24:59;95246.59;;;7.45;54.09
56600;BME280;51832;48.152;11.530;2022-12-07T12:30:23;95259.44;;;7.60;54.54
56600;BME280;51832;48.152;11.530;2022-12-07T12:35:31;95253.97;;;7.61;53.74
56600;BME280;51832;48.152;11.530;2022-12-07T12:40:39;95248.69;;;7.23;55.43
56600;BME280;51832;48.152;11.530;2022-12-07T12:45:40;95253.13;;;7.74;54.57
56600;BME280;51832;48.152;11.530;2022-12-07T12:50:40;95252.38;;;7.54;54.82
56600;BME280;51832;48.152;11.530;2022-12-07T13:00:41;95242.66;;;7.74;54.94
56600;BME280;51832;48.152;11.530;2022-12-07T13:05:42;95243.53;;;7.93;54.08
56600;BME280;51832;48.152;11.530;2022-12-07T13:10:46;95238.84;;;7.70;54.24
56600;BME280;51832;48.152;11.530;2022-12-07T13:15:51;95237.00;;;7.77;54.31
56600;BME280;51832;48.152;11.530;2022-12-07T13:36:21;95230.44;;;7.93;54.86
56600;BME280;51832;48.152;11.530;2022-12-07T13:41:31;95216.19;;;7.51;56.08
56600;BME280;51832;48.152;11.530;2022-12-07T13:51:42;95219.84;;;7.36;56.09
56600;BME280;51832;48.152;11.530;2022-12-07T13:56:43;95225.47;;;7.40;56.87
56600;BME280;51832;48.152;11.530;2022-12-07T14:01:46;95217.06;;;8.07;55.36
56600;BME280;51832;48.152;11.530;2022-12-07T14:06:49;95196.47;;;11.07;47.89
56600;BME280;51832;48.152;11.530;2022-12-07T14:11:53;95202.25;;;14.21;38.74
56600;BME280;51832;48.152;11.530;2022-12-07T14:27:31;95201.25;;;17.84;27.60
56600;BME280;51832;48.152;11.530;2022-12-07T14:32:35;95201.97;;;15.61;30.17
56600;BME280;51832;48.152;11.530;2022-12-07T14:37:38;95202.69;;;15.04;31.47
56600;BME280;51832;48.152;11.530;2022-12-07T14:42:39;95205.19;;;15.73;30.15
56600;BME280;51832;48.152;11.530;2022-12-07T14:47:40;95198.91;;;14.04;32.87
56600;BME280;51832;48.152;11.530;2022-12-07T14:52:42;95206.84;;;13.17;34.45
56600;BME280;51832;48.152;11.530;2022-12-07T14:57:43;95202.56;;;11.99;38.23
56600;BME280;51832;48.152;11.530;2022-12-07T15:02:45;95198.75;;;10.15;43.14
56600;BME280;51832;48.152;11.530;2022-12-07T15:07:47;95196.84;;;9.62;45.32
56600;BME280;51832;48.152;11.530;2022-12-07T15:12:48;95195.34;;;9.18;46.77
56600;BME280;51832;48.152;11.530;2022-12-07T15:17:48;95188.84;;;9.02;47.66
56600;BME280;51832;48.152;11.530;2022-12-07T15:22:49;95203.63;;;8.78;48.98
56600;BME280;51832;48.152;11.530;2022-12-07T15:27:49;95196.63;;;8.72;49.58
56600;BME280;51832;48.152;11.530;2022-12-07T15:32:53;95199.25;;;8.47;50.87
56600;BME280;51832;48.152;11.530;2022-12-07T15:37:54;95195.94;;;8.34;51.77
56600;BME280;51832;48.152;11.530;2022-12-07T15:42:55;95199.34;;;8.34;53.52
56600;BME280;51832;48.152;11.530;2022-12-07T15:47:55;95202.69;;;8.48;53.89
56600;BME280;51832;48.152;11.530;2022-12-07T15:52:56;95193.00;;;8.48;54.16
56600;BME280;51832;48.152;11.530;2022-12-07T15:57:56;95190.25;;;8.37;55.28
56600;BME280;51832;48.152;11.530;2022-12-07T16:02:56;95194.00;;;8.47;54.90
56600;BME280;51832;48.152;11.530;2022-12-07T16:07:57;95195.94;;;8.34;55.92
56600;BME280;51832;48.152;11.530;2022-12-07T16:12:57;95196.91;;;8.39;57.99
56600;BME280;51832;48.152;11.530;2022-12-07T16:17:58;95192.09;;;8.36;57.07
56600;BME280;51832;48.152;11.530;2022-12-07T16:22:58;95191.53;;;8.28;57.08
56600;BME280;51832;48.152;11.530;2022-12-07T16:27:59;95191.66;;;8.39;56.69
56600;BME280;51832;48.152;11.530;2022-12-07T16:32:59;95194.13;;;8.03;57.17
56600;BME280;51832;48.152;11.530;2022-12-07T16:37:59;95188.59;;;7.79;56.27
56600;BME280;51832;48.152;11.530;2022-12-07T16:43:00;95188.00;;;7.84;54.36
56600;BME280;51832;48.152;11.530;2022-12-07T16:48:00;95177.13;;;7.80;55.72
56600;BME280;51832;48.152;11.530;2022-12-07T16:53:01;95188.72;;;7.60;55.96
56600;BME280;51832;48.152;11.530;2022-12-07T16:58:01;95173.22;;;7.65;56.14
56600;BME280;51832;48.152;11.530;2022-12-07T17:03:02;95175.50;;;7.48;56.77
56600;BME280;51832;48.152;11.530;2022-12-07T17:08:03;95173.31;;;7.38;56.88
56600;BME280;51832;48.152;11.530;2022-12-07T17:13:04;95172.91;;;7.41;57.28
56600;BME280;51832;48.152;11.530;2022-12-07T17:18:27;95173.72;;;7.42;56.71
56600;BME280;51832;48.152;11.530;2022-12-07T17:23:28;95159.72;;;7.23;57.64
56600;BME280;51832;48.152;11.530;2022-12-07T17:28:28;95158.66;;;7.37;57.20
56600;BME280;51832;48.152;11.530;2022-12-07T17:33:29;95148.78;;;7.33;57.36
56600;BME280;51832;48.152;11.530;2022-12-07T17:38:30;95166.09;;;7.34;57.78
56600;BME280;51832;48.152;11.530;2022-12-07T17:43:30;95168.66;;;6.96;58.03
56600;BME280;51832;48.152;11.530;2022-12-07T17:48:31;95170.38;;;6.37;60.72
56600;BME280;51832;48.152;11.530;2022-12-07T17:53:31;95167.53;;;6.46;60.36
56600;BME280;51832;48.152;11.530;2022-12-07T17:58:31;95161.31;;;6.20;61.06
56600;BME280;51832;48.152;11.530;2022-12-07T18:03:32;95158.50;;;6.35;60.88
56600;BME280;51832;48.152;11.530;2022-12-07T18:08:35;95167.56;;;6.06;62.20
56600;BME280;51832;48.152;11.530;2022-12-07T18:13:38;95159.66;;;5.80;62.63
56600;BME280;51832;48.152;11.530;2022-12-07T18:18:39;95150.91;;;6.00;62.31
56600;BME280;51832;48.152;11.530;2022-12-07T18:23:43;95169.91;;;5.75;63.09
56600;BME280;51832;48.152;11.530;2022-12-07T18:28:44;95172.53;;;5.88;62.48
56600;BME280;51832;48.152;11.530;2022-12-07T18:33:45;95168.75;;;5.90;62.51
56600;BME280;51832;48.152;11.530;2022-12-07T18:38:47;95151.81;;;5.60;63.10
56600;BME280;51832;48.152;11.530;2022-12-07T18:43:47;95160.50;;;5.87;62.21
56600;BME280;51832;48.152;11.530;2022-12-07T18:48:48;95147.03;;;5.83;62.44
56600;BME280;51832;48.152;11.530;2022-12-07T18:53:51;95156.69;;;5.89;62.29
56600;BME280;51832;48.152;11.530;2022-12-07T18:58:56;95167.50;;;5.73;63.30
56600;BME280;51832;48.152;11.530;2022-12-07T19:04:16;95151.91;;;5.99;62.74
56600;BME280;51832;48.152;11.530;2022-12-07T19:09:19;95166.75;;;6.05;63.01
56600;BME280;51832;48.152;11.530;2022-12-07T19:14:23;95143.81;;;5.81;63.28
56600;BME280;51832;48.152;11.530;2022-12-07T19:19:32;95154.78;;;5.50;64.79
56600;BME280;51832;48.152;11.530;2022-12-07T19:24:33;95131.28;;;5.37;65.42
56600;BME280;51832;48.152;11.530;2022-12-07T19:29:34;95155.00;;;5.55;65.27
56600;BME280;51832;48.152;11.530;2022-12-07T19:34:36;95139.16;;;5.63;64.59
56600;BME280;51832;48.152;11.530;2022-12-07T19:39:40;95126.13;;;5.57;65.16
56600;BME280;51832;48.152;11.530;2022-12-07T19:44:42;95135.38;;;5.72;64.89
56600;BME280;51832;48.152;11.530;2022-12-07T19:49:44;95139.81;;;5.85;64.07
56600;BME280;51832;48.152;11.530;2022-12-07T19:54:45;95105.84;;;5.59;64.82
56600;BME280;51832;48.152;11.530;2022-12-07T19:59:45;95106.84;;;5.71;64.62
56600;BME280;51832;48.152;11.530;2022-12-07T20:04:46;95101.19;;;5.61;65.00
56600;BME280;51832;48.152;11.530;2022-12-07T20:09:47;95111.84;;;5.66;64.95
56600;BME280;51832;48.152;11.530;2022-12-07T20:14:47;95101.44;;;5.59;65.13
56600;BME280;51832;48.152;11.530;2022-12-07T20:19:48;95080.31;;;5.61;64.57
56600;BME280;51832;48.152;11.530;2022-12-07T20:24:48;95105.47;;;5.95;64.85
56600;BME280;51832;48.152;11.530;2022-12-07T20:29:49;95082.75;;;5.62;64.99
56600;BME280;51832;48.152;11.530;2022-12-07T20:34:49;95106.03;;;5.44;66.87
56600;BME280;51832;48.152;11.530;2022-12-07T20:39:50;95099.41;;;5.61;65.60
56600;BME280;51832;48.152;11.530;2022-12-07T20:44:50;95094.78;;;5.57;65.72
56600;BME280;51832;48.152;11.530;2022-12-07T20:49:51;95098.84;;;5.86;65.00
56600;BME280;51832;48.152;11.530;2022-12-07T20:54:52;95101.63;;;5.78;64.34
56600;BME280;51832;48.152;11.530;2022-12-07T20:59:52;95096.59;;;5.76;64.60
56600;BME280;51832;48.152;11.530;2022-12-07T21:04:53;95096.78;;;5.75;64.78
56600;BME280;51832;48.152;11.530;2022-12-07T21:09:53;95104.88;;;5.93;64.79
56600;BME280;51832;48.152;11.530;2022-12-07T21:14:54;95096.41;;;5.84;64.69
56600;BME280;51832;48.152;11.530;2022-12-07T21:19:54;95094.81;;;5.70;65.31
56600;BME280;51832;48.152;11.530;2022-12-07T21:24:55;95092.59;;;5.80;64.38
56600;BME280;51832;48.152;11.530;2022-12-07T21:29:55;95096.41;;;5.84;64.31
56600;BME280;51832;48.152;11.530;2022-12-07T21:34:56;95093.81;;;5.71;64.65
56600;BME280;51832;48.152;11.530;2022-12-07T21:39:56;95085.19;;;5.84;64.24
56600;BME280;51832;48.152;11.530;2022-12-07T21:44:56;95072.09;;;5.64;64.91
56600;BME280;51832;48.152;11.530;2022-12-07T21:49:57;95082.09;;;5.27;66.02
56600;BME280;51832;48.152;11.530;2022-12-07T21:54:57;95068.47;;;5.39;65.63
56600;BME280;51832;48.152;11.530;2022-12-07T21:59:58;95076.31;;;5.45;65.42
56600;BME280;51832;48.152;11.530;2022-12-07T22:04:58;95071.06;;;5.39;65.47
56600;BME280;51832;48.152;11.530;2022-12-07T22:09:59;95081.91;;;5.29;66.10
56600;BME280;51832;48.152;11.530;2022-12-07T22:14:59;95068.69;;;5.50;65.40
56600;BME280;51832;48.152;11.530;2022-12-07T22:20:06;95050.81;;;5.54;64.70
56600;BME280;51832;48.152;11.530;2022-12-07T22:25:07;95065.91;;;5.71;64.87
56600;BME280;51832;48.152;11.530;2022-12-07T22:30:10;95063.69;;;5.88;64.59
56600;BME280;51832;48.152;11.530;2022-12-07T22:35:11;95044.41;;;5.83;63.80
56600;BME280;51832;48.152;11.530;2022-12-07T22:40:12;95060.06;;;5.83;64.79
56600;BME280;51832;48.152;11.530;2022-12-07T22:45:12;95051.63;;;5.87;64.33
56600;BME280;51832;48.152;11.530;2022-12-07T22:50:12;95041.00;;;5.95;64.23
56600;BME280;51832;48.152;11.530;2022-12-07T22:55:13;95036.75;;;5.88;64.37
56600;BME280;51832;48.152;11.530;2022-12-07T23:00:14;95041.97;;;5.88;64.62
56600;BME280;51832;48.152;11.530;2022-12-07T23:05:15;95033.78;;;5.91;64.37
56600;BME280;51832;48.152;11.530;2022-12-07T23:10:15;95033.94;;;6.02;64.35
56600;BME280;51832;48.152;11.530;2022-12-07T23:15:16;95038.34;;;6.15;64.19
56600;BME280;51832;48.152;11.530;2022-12-07T23:20:16;95021.28;;;6.06;64.20
56600;BME280;51832;48.152;11.530;2022-12-07T23:25:16;95026.91;;;6.10;64.22
56600;BME280;51832;48.152;11.530;2022-12-07T23:30:17;95009.63;;;6.02;64.65
56600;BME280;51832;48.152;11.530;2022-12-07T23:35:17;95010.25;;;5.84;65.53
56600;BME280;51832;48.152;11.530;2022-12-07T23:40:18;95004.84;;;5.92;64.97
56600;BME280;51832;48.152;11.530;2022-12-07T23:45:18;94982.97;;;5.74;66.04
56600;BME280;51832;48.152;11.530;2022-12-07T23:50:18;94995.19;;;5.86;66.03
56600;BME280;51832;48.152;11.530;2022-12-07T23:55:19;94997.41;;;5.96;65.60
